Flight Track Log - Related Links

Times and Time Zones

All times are in EST time to prevent confusion due to time zone crossing. See the AIC164 flight status page for this flight to view local times or setup timezone preferences in your user account.

Time Position Orientation Groundspeed Altitude Reporting Facility
EST Latitude Longitude Course Direction KTS MPH feet Rate Location/Type
Sat 04:17:03 AM 42.0167 -87.9667 37° Northeast 179 206 3,100  Level Chicago TRACON
Sat 04:18:03 AM 42.0500 -87.9333 37° Northeast 188 216 4,900 1,750 Climbing Chicago TRACON
Sat 04:19:03 AM 42.1000 -87.8833 60° Northeast 264 304 6,600 2,073 Climbing Chicago TRACON
Sat 04:19:53 AM 42.1358 -87.7986 76° East 287 330 8,700 2,564 Climbing Chicago Center
Sat 04:20:53 AM 42.1569 -87.6861 74° East 311 358 11,300 2,000 Climbing Chicago Center
Sat 04:21:53 AM 42.1842 -87.5536 75° East 331 381 12,700 1,900 Climbing Chicago Center
Sat 04:22:53 AM 42.2131 -87.4069 83° East 372 428 15,100 2,400 Climbing Chicago Center
Sat 04:23:53 AM 42.2269 -87.2469 86° East 406 467 17,500 2,250 Climbing Chicago Center
Sat 04:24:53 AM 42.2361 -87.0753 84° East 436 502 19,600 2,150 Climbing Chicago Center
Sat 04:25:53 AM 42.2494 -86.9011 85° East 455 524 21,800 2,100 Climbing Chicago Center
Sat 04:26:53 AM 42.2600 -86.7183 85° East 467 537 23,800 1,900 Climbing Chicago Center
Sat 04:27:53 AM 42.2719 -86.5269 86° East 492 566 25,600 1,900 Climbing Chicago Center
Sat 04:28:53 AM 42.2819 -86.3383 85° East 504 580 27,600 1,800 Climbing Chicago Center
Sat 04:29:53 AM 42.2953 -86.1467 87° East 504 580 29,200 1,650 Climbing Chicago Center
Sat 04:30:53 AM 42.3028 -85.9722 86° East 504 580 30,900 1,500 Climbing Chicago Center
Sat 04:31:53 AM 42.3117 -85.7808 85° East 509 586 32,200 746 Climbing Chicago Center
Sat 04:33:42 AM 42.3336 -85.4150 87° East 511 588 33,000 284 Climbing Cleveland Center
Sat 04:34:42 AM 42.3419 -85.2161 85° East 523 602 33,000  Level Cleveland Center
Sat 04:35:42 AM 42.3547 -84.9950 87° East 528 608 33,000  Level Cleveland Center
Sat 04:36:42 AM 42.3625 -84.7903 89° East 535 616 33,000  Level Cleveland Center
Sat 04:37:42 AM 42.3653 -84.5939 87° East 531 611 33,000  Level Cleveland Center
Sat 04:38:42 AM 42.3744 -84.3864 87° East 536 617 33,000  Level Cleveland Center
Sat 04:39:42 AM 42.3831 -84.1786 87° East 536 617 33,000  Level Cleveland Center
Sat 04:40:42 AM 42.3914 -83.9739 86° East 544 626 33,000  Level Cleveland Center
Sat 04:41:42 AM 42.4017 -83.7664 83° East 550 633 33,000  Level Cleveland Center
Sat 04:42:42 AM 42.4197 -83.5592 72° East 555 639 33,000  Level Cleveland Center
Sat 04:43:42 AM 42.4617 -83.3808 69° East 552 635 33,000  Level Cleveland Center
Sat 04:44:42 AM 42.5183 -83.1806 70° East 557 641 33,000  Level Cleveland Center
Sat 04:45:42 AM 42.5708 -82.9797 70° East 562 647 33,000  Level Cleveland Center
Sat 04:46:42 AM 42.6294 -82.7561 70° East 562 647 33,000  Level Cleveland Center
Sat 04:47:42 AM 42.6850 -82.5519 71° East 562 647 33,000  Level Cleveland Center
Sat 04:48:42 AM 42.7364 -82.3472 71° East 567 652 33,000  Level Cleveland Center
Sat 04:49:42 AM 42.7872 -82.1419 70° East 567 652 33,000  Level Cleveland Center
Sat 04:50:42 AM 42.8419 -81.9339 73° East 572 658 33,000  Level Cleveland Center
Sat 04:51:33 AM 42.8833 -81.7500 74° East 580 667 33,000  Level Toronto Center
Sat 04:52:33 AM 42.9333 -81.5167 71° East 590 679 33,000  Level Toronto Center
Sat 04:53:33 AM 42.9833 -81.3167 71° East 590 679 33,000  Level Toronto Center
Sat 04:54:33 AM 43.0333 -81.1167 60° Northeast 590 679 33,000  Level Toronto Center
Sat 04:55:33 AM 43.1167 -80.9167 62° Northeast 590 679 33,000  Level Toronto Center
Sat 04:56:33 AM 43.2000 -80.7000 55° Northeast 590 679 33,000  Level Toronto Center
Sat 04:57:33 AM 43.2833 -80.5333 62° Northeast 590 679 33,000  Level Toronto Center
Sat 04:58:33 AM 43.3667 -80.3167 63° Northeast 590 679 33,000  Level Toronto Center
Sat 04:59:33 AM 43.4333 -80.1333 60° Northeast 590 679 33,000  Level Toronto Center
Sat 05:00:33 AM 43.5167 -79.9333 60° Northeast 590 679 33,000  Level Toronto Center
Sat 05:01:33 AM 43.6000 -79.7333 60° Northeast 600 690 33,000  Level Toronto Center
Sat 05:02:33 AM 43.6833 -79.5333 65° Northeast 590 679 33,000  Level Toronto Center
Sat 05:03:33 AM 43.7500 -79.3333 62° Northeast 600 690 33,000  Level Toronto Center
Sat 05:04:33 AM 43.8333 -79.1167 65° Northeast 600 690 33,000  Level Toronto Center
Sat 05:05:33 AM 43.9000 -78.9167 67° East 600 690 33,000  Level Toronto Center
Sat 05:06:33 AM 43.9667 -78.7000 60° Northeast 600 690 33,000  Level Toronto Center
Sat 05:07:33 AM 44.0500 -78.5000 72° East 600 690 33,000  Level Toronto Center
Sat 05:08:33 AM 44.1000 -78.2833 47° Northeast 600 690 33,000  Level Toronto Center
Sat 05:09:09 AM 44.1667 -78.1833 79° East 600 690 33,000  Level Montreal Center
Sat 05:09:33 AM 44.1833 -78.0667 65° Northeast 600 690 33,000  Level Toronto Center
Sat 05:10:33 AM 44.2500 -77.8667 62° Northeast 600 690 33,000  Level Toronto Center
Sat 05:11:33 AM 44.3333 -77.6500 50° Northeast 610 702 33,000  Level Toronto Center
Sat 05:12:09 AM 44.3833 -77.5667 63° Northeast 600 690 33,000  Level Montreal Center
Sat 05:13:09 AM 44.4667 -77.3333 79° East 610 702 33,000  Level Montreal Center
Sat 05:13:33 AM 44.4833 -77.2167 65° Northeast 610 702 33,000  Level Toronto Center
Sat 05:14:33 AM 44.5500 -77.0167 55° Northeast 610 702 33,000  Level Toronto Center
Sat 05:15:09 AM 44.6000 -76.9167 62° Northeast 610 702 33,000  Level Montreal Center
Sat 05:16:09 AM 44.6833 -76.7000 79° East 610 702 33,000  Level Montreal Center
Sat 05:16:33 AM 44.7000 -76.5833 60° Northeast 610 702 33,000  Level Toronto Center
Sat 05:17:33 AM 44.7833 -76.3833 55° Northeast 610 702 33,000  Level Toronto Center
Sat 05:18:09 AM 44.8333 -76.2833 59° Northeast 610 702 33,000  Level Montreal Center
Sat 05:19:09 AM 44.9167 -76.0833 61° Northeast 600 690 33,000  Level Montreal Center
Sat 05:20:09 AM 45.0000 -75.8667 52° Northeast 600 690 33,000  Level Montreal Center
Sat 05:21:09 AM 45.1000 -75.6833 61° Northeast 600 690 33,000  Level Montreal Center
Sat 05:22:09 AM 45.1833 -75.4667 57° Northeast 600 690 33,000  Level Montreal Center
Sat 05:23:09 AM 45.2667 -75.2833 57° Northeast 600 690 33,000  Level Montreal Center
Sat 05:24:09 AM 45.3667 -75.0667 59° Northeast 600 690 33,000  Level Montreal Center
Sat 05:25:09 AM 45.4500 -74.8667 52° Northeast 610 702 33,000  Level Montreal Center
Sat 05:26:09 AM 45.5500 -74.6833 63° Northeast 600 690 33,000  Level Montreal Center
Sat 05:27:09 AM 45.6333 -74.4500 52° Northeast 600 690 33,000  Level Montreal Center
Sat 05:28:09 AM 45.7333 -74.2667 59° Northeast 600 690 33,000  Level Montreal Center
Sat 05:29:09 AM 45.8167 -74.0667 61° Northeast 590 679 33,000  Level Montreal Center
Sat 05:30:09 AM 45.9000 -73.8500 59° Northeast 590 679 33,000  Level Montreal Center
Sat 05:31:09 AM 45.9833 -73.6500 54° Northeast 590 679 33,000  Level Montreal Center
Sat 05:32:09 AM 46.0833 -73.4500 59° Northeast 600 690 33,000  Level Montreal Center
Sat 05:33:09 AM 46.1667 -73.2500 66° East 600 690 33,000  Level Montreal Center
Sat 05:34:09 AM 46.2333 -73.0333 54° Northeast 600 690 33,000  Level Montreal Center
Sat 05:35:09 AM 46.3333 -72.8333 59° Northeast 600 690 33,000  Level Montreal Center
Sat 05:36:09 AM 46.4167 -72.6333 61° Northeast 590 679 33,000  Level Montreal Center
Sat 05:37:09 AM 46.5000 -72.4167 61° Northeast 590 679 33,000  Level Montreal Center
Sat 05:38:09 AM 46.5833 -72.2000 59° Northeast 590 679 33,000  Level Montreal Center
Sat 05:39:09 AM 46.6667 -72.0000 61° Northeast 590 679 33,000  Level Montreal Center
Sat 05:40:09 AM 46.7500 -71.7833 59° Northeast 590 679 33,000  Level Montreal Center
Sat 05:41:09 AM 46.8333 -71.5833 66° East 600 690 33,000  Level Montreal Center
Sat 05:42:09 AM 46.9000 -71.3667 54° Northeast 580 667 33,000  Level Montreal Center
Sat 05:43:09 AM 47.0000 -71.1667 64° Northeast 590 679 33,000  Level Montreal Center
Sat 05:44:09 AM 47.0667 -70.9667 60° Northeast 590 679 33,000  Level Montreal Center
Sat 05:45:09 AM 47.1500 -70.7500 60° Northeast 590 679 33,000  Level Montreal Center
Sat 05:46:09 AM 47.2333 -70.5333 66° East 590 679 33,000  Level Montreal Center
Sat 05:47:09 AM 47.3000 -70.3167 53° Northeast 590 679 33,000  Level Montreal Center
Sat 05:48:09 AM 47.4000 -70.1167 65° Northeast 590 679 33,000  Level Montreal Center
Sat 05:49:09 AM 47.4667 -69.9000 58° Northeast 590 679 33,000  Level Montreal Center
Sat 05:50:09 AM 47.5500 -69.7000 64° Northeast 580 667 33,000  Level Montreal Center
Sat 05:51:09 AM 47.6333 -69.4500 62° Northeast 580 667 33,000  Level Montreal Center
Sat 05:52:09 AM 47.7000 -69.2667 62° Northeast 580 667 33,000  Level Montreal Center
Sat 05:53:09 AM 47.7833 -69.0333 58° Northeast 580 667 33,000  Level Montreal Center
Sat 05:54:09 AM 47.8667 -68.8333 63° Northeast 580 667 33,000  Level Montreal Center
Sat 05:55:09 AM 47.9333 -68.6333 63° Northeast 580 667 33,000  Level Montreal Center
Sat 05:56:09 AM 48.0000 -68.4333 68° East 580 667 33,000  Level Montreal Center
Sat 05:57:09 AM 48.0667 -68.1833 60° Northeast 580 667 33,000  Level Montreal Center
Sat 05:58:09 AM 48.1500 -67.9667 63° Northeast 580 667 33,000  Level Montreal Center
Sat 05:59:09 AM 48.2167 -67.7667 65° Northeast 570 656 33,000  Level Montreal Center
Sat 06:00:09 AM 48.2833 -67.5500 55° Northeast 570 656 33,000  Level Montreal Center
Sat 06:01:09 AM 48.3833 -67.3333 69° East 570 656 33,000  Level Montreal Center
Sat 06:01:35 AM 48.4000 -67.2667 65° Northeast 570 656 33,000  Level Moncton Center
Sat 06:02:35 AM 48.4667 -67.0500 58° Northeast 570 656 33,000  Level Moncton Center
Sat 06:03:35 AM 48.5500 -66.8500 69° East 570 656 33,000  Level Moncton Center
Sat 06:04:35 AM 48.6000 -66.6500 56° Northeast 560 644 33,000  Level Moncton Center
Sat 06:05:18 AM 48.6667 -66.5000 71° East 560 644 33,000  Level Gander Center
Sat 06:06:18 AM 48.7167 -66.2833 63° Northeast 560 644 33,000  Level Gander Center
Sat 06:07:18 AM 48.7833 -66.0833 66° East 550 633 33,000  Level Gander Center
Sat 06:08:18 AM 48.8500 -65.8500 63° Northeast 550 633 33,000  Level Gander Center
Sat 06:09:18 AM 48.9167 -65.6500 45° Northeast 550 633 33,000  Level Gander Center
Sat 06:09:35 AM 48.9500 -65.6000 69° East 550 633 33,000  Level Moncton Center
Sat 06:10:35 AM 49.0000 -65.4000 65° Northeast 550 633 33,000  Level Moncton Center
Sat 06:11:18 AM 49.0500 -65.2333 65° Northeast 550 633 33,000  Level Gander Center
Sat 06:12:18 AM 49.1167 -65.0167 63° Northeast 550 633 33,000  Level Gander Center
Sat 06:12:35 AM 49.1333 -64.9667 66° East 550 633 33,000  Level Moncton Center
Sat 06:13:35 AM 49.2000 -64.7333 63° Northeast 550 633 33,000  Level Moncton Center
Sat 06:14:18 AM 49.2500 -64.5833 69° East 550 633 33,000  Level Gander Center
Sat 06:15:18 AM 49.3000 -64.3833 52° Northeast 550 633 33,000  Level Gander Center
Sat 06:15:35 AM 49.3333 -64.3167 69° East 540 621 33,000  Level Moncton Center
Sat 06:16:35 AM 49.3833 -64.1167 65° Northeast 540 621 33,000  Level Moncton Center
Sat 06:17:18 AM 49.4333 -63.9500 69° East 550 633 33,000  Level Gander Center
Sat 06:18:18 AM 49.4833 -63.7500 58° Northeast 540 621 33,000  Level Gander Center
Sat 06:18:35 AM 49.5167 -63.6667 63° Northeast 540 621 33,000  Level Moncton Center
Sat 06:19:18 AM 49.5667 -63.5167 69° East 540 621 33,000  Level Gander Center
Sat 06:20:18 AM 49.6167 -63.3167 63° Northeast 540 621 33,000  Level Gander Center
Sat 06:20:35 AM 49.6333 -63.2667 67° East 540 621 33,000  Level Moncton Center
Sat 06:21:18 AM 49.6833 -63.0833 69° East 540 621 33,000  Level Gander Center
Sat 06:22:18 AM 49.7333 -62.8833 52° Northeast 540 621 33,000  Level Gander Center
Sat 06:22:35 AM 49.7500 -62.8500 67° East 540 621 33,000  Level Moncton Center
Sat 06:23:35 AM 49.8167 -62.6000 61° Northeast 530 610 33,000  Level Moncton Center
Sat 06:24:35 AM 49.8833 -62.4167 71° East 540 621 33,000  Level Moncton Center
Sat 06:25:18 AM 49.9167 -62.2667 90° East 530 610 33,000  Level Gander Center
Sat 06:25:35 AM 49.9167 -62.2167 63° Northeast 530 610 33,000  Level Moncton Center
Sat 06:26:18 AM 49.9667 -62.0667 66° East 530 610 33,000  Level Gander Center
Sat 06:27:18 AM 50.0333 -61.8333 90° East 530 610 33,000  Level Gander Center
Sat 06:27:35 AM 50.0333 -61.7833 65° Northeast 530 610 33,000  Level Moncton Center
Sat 06:28:18 AM 50.0833 -61.6167 69° East 540 621 33,000  Level Gander Center
Sat 06:29:18 AM 50.1333 -61.4167 64° Northeast 540 621 33,000  Level Gander Center
Sat 06:30:18 AM 50.2000 -61.2000 69° East 530 610 33,000  Level Gander Center
Sat 06:31:18 AM 50.2500 -61.0000 71° East 530 610 33,000  Level Gander Center
Sat 06:32:18 AM 50.3000 -60.7667 64° Northeast 530 610 33,000  Level Gander Center
Sat 06:33:18 AM 50.3667 -60.5500 71° East 530 610 33,000  Level Gander Center
Sat 06:34:18 AM 50.4167 -60.3167 67° East 530 610 33,000  Level Gander Center
Sat 06:35:18 AM 50.4667 -60.1333 67° East 530 610 33,000  Level Gander Center
Sat 06:36:18 AM 50.5333 -59.8833 68° East 530 610 33,000  Level Gander Center
Sat 06:37:18 AM 50.5833 -59.6833 90° East 530 610 33,000  Level Gander Center
Sat 06:37:35 AM 50.5833 -59.6167 71° East 540 621 33,000  Level Moncton Center
Sat 06:38:35 AM 50.6333 -59.3833 65° Northeast 530 610 33,000  Level Moncton Center
Sat 06:39:18 AM 50.6833 -59.2167 62° Northeast 530 610 33,000  Level Gander Center
Sat 06:39:35 AM 50.7000 -59.1667 76° East 530 610 33,000  Level Moncton Center
Sat 06:40:35 AM 50.7333 -58.9500 64° Northeast 510 587 33,000  Level Moncton Center
Sat 06:41:35 AM 50.8000 -58.7333 71° East 530 610 33,000  Level Moncton Center
Sat 06:42:18 AM 50.8333 -58.5833 70° East 520 598 33,000  Level Gander Center
Sat 06:43:18 AM 50.8833 -58.3667 90° East 520 598 33,000  Level Gander Center
Sat 06:43:35 AM 50.8833 -58.2833 60° Northeast 520 598 33,000  Level Moncton Center
Sat 06:44:35 AM 50.9500 -58.1000 70° East 520 598 33,000  Level Moncton Center
Sat 06:45:35 AM 51.0000 -57.8833 72° East 520 598 33,000  Level Moncton Center
Sat 06:46:18 AM 51.0333 -57.7167 70° East 520 598 33,000  Level Gander Center
Sat 06:47:18 AM 51.0833 -57.5000 68° East 520 598 33,000  Level Gander Center
Sat 06:47:35 AM 51.1000 -57.4333 80° East 520 598 33,000  Level Moncton Center
Sat 06:48:18 AM 51.1167 -57.2833 64° Northeast 520 598 33,000  Level Gander Center
Sat 06:49:18 AM 51.1833 -57.0667 76° East 520 598 33,000  Level Gander Center
Sat 06:50:18 AM 51.2167 -56.8500 70° East 520 598 33,000 50 Level Gander Center
Sat 06:51:18 AM 51.2667 -56.6333 62° Northeast 520 598 33,100 312 Climbing Gander Center
Sat 06:51:35 AM 51.2833 -56.5833 81° East 520 598 33,400 1,600 Climbing Moncton Center
Sat 06:52:18 AM 51.3000 -56.4167 68° East 520 598 34,700 1,552 Climbing Gander Center
Sat 06:52:33 AM 51.3167 -56.3500 70° East 520 598 34,900 240 Climbing Gander Center
Sat 06:53:33 AM 51.3667 -56.1333 72° East 530 610 35,000 57 Climbing Gander Center
Sat 06:54:18 AM 51.4000 -55.9667 58° Northeast 520 598 35,000  Level Gander Center
Sat 06:55:18 AM 51.4833 -55.7500 68° East 540 621 35,000  Level Gander Center
Sat 06:56:18 AM 51.5333 -55.5500 62° Northeast 540 621 35,000  Level Gander Center
Sat 06:56:33 AM 51.5500 -55.5000 64° Northeast 530 610 35,000  Level Gander Center
Sat 06:57:18 AM 51.6000 -55.3333 68° East 530 610 35,000  Level Gander Center
Sat 06:57:33 AM 51.6167 -55.2667 51° Northeast 530 610 35,000  Level Gander Center
Sat 06:58:18 AM 51.6833 -55.1333 68° East 530 610 35,000  Level Gander Center
Sat 06:58:33 AM 51.7000 -55.0667 72° East 530 610 35,000  Level Gander Center
Sat 06:59:18 AM 51.7333 -54.9000 43° Northeast 530 610 35,000  Level Gander Center
Sat 06:59:33 AM 51.7667 -54.8500 71° East 530 610 35,000  Level Gander Center
Sat 07:00:33 AM 51.8167 -54.6167 57° Northeast 540 621 35,000  Level Gander Center
Sat 07:01:18 AM 51.8833 -54.4500 68° East 530 610 35,000  Level Gander Center
Sat 07:02:18 AM 51.9333 -54.2500 62° Northeast 530 610 35,000  Level Gander Center
Sat 07:03:18 AM 52.0000 -54.0500 62° Northeast 540 621 35,000  Level Gander Center
Sat 07:03:33 AM 52.0167 -54.0000 65° Northeast 530 610 35,000  Level Gander Center
Sat 07:04:33 AM 52.0833 -53.7667 66° East 540 621 35,000  Level Gander Center
Sat 07:05:18 AM 52.1333 -53.5833 63° Northeast 540 621 35,000  Level Gander Center
Sat 07:06:18 AM 52.2000 -53.3667 68° East 540 621 35,000  Level Gander Center
Sat 07:07:18 AM 52.2500 -53.1667 71° East 540 621 35,000  Level Gander Center
Sat 07:08:18 AM 52.3000 -52.9333 65° Northeast 540 621 35,000  Level Gander Center
Sat 07:09:18 AM 52.3667 -52.7000 71° East 530 610 35,000  Level Gander Center
Sat 07:10:18 AM 52.4167 -52.4667 71° East 530 610 35,000  Level Gander Center
Sat 07:11:18 AM 52.4667 -52.2333 71° East 540 621 35,000  Level Gander Center
Sat 07:12:18 AM 52.5167 -52.0000 70° East 550 633 35,000  Level Gander Center
Sat 07:13:18 AM 52.5667 -51.7667 65° Northeast 550 633 35,000  Level Gander Center
Sat 07:14:18 AM 52.6333 -51.5333 67° East 540 621 35,000  Level Gander Center
Sat 07:16:18 AM 52.7500 -51.0667 77° East 550 633 35,000  Level Gander Center
Sat 07:17:18 AM 52.7833 -50.8333 65° Northeast 550 633 35,000  Level Gander Center
Sat 07:18:18 AM 52.8500 -50.6000 70° East 560 644 35,000  Level Gander Center
Sat 07:19:18 AM 52.9000 -50.3667 83° East 550 633 35,000  Level Gander Center
Sat 07:20:18 AM 52.9167 -50.1333 65° Northeast 550 633 35,000  Level Gander Center
Sat 07:27:29 AM 53.3641 -48.5112 69° East  Level FlightAware Approximate
Sat 07:35:29 AM 53.7858 -46.6154 70° East  Level FlightAware Approximate
Sat 07:43:29 AM 54.1769 -44.6824 72° East  Level FlightAware Approximate
Sat 07:51:29 AM 54.5366 -42.7141 73° East  Level FlightAware Approximate
Sat 07:59:29 AM 54.8637 -40.7124 74° East  Level FlightAware Approximate
Sat 08:07:29 AM 55.1809 -38.6910 73° East  Level FlightAware Approximate
Sat 08:15:29 AM 55.5110 -36.6582 75° East  Level FlightAware Approximate
Sat 08:23:29 AM 55.8069 -34.5929 77° East  Level FlightAware Approximate
Sat 08:31:29 AM 56.0678 -32.4978 78° East  Level FlightAware Approximate
Sat 08:39:29 AM 56.2926 -30.3762 79° East  Level FlightAware Approximate
Sat 08:47:29 AM 56.5117 -28.2402 90° East  Level FlightAware Approximate
Sat 08:55:29 AM 56.4848 -26.1195 81° East  Level FlightAware Approximate
Sat 09:03:29 AM 56.6530 -23.9590 79° East  Level FlightAware Approximate
Sat 09:11:29 AM 56.8734 -21.8039 83° East  Level FlightAware Approximate
Sat 09:19:29 AM 56.9949 -19.6149 91° East  Level FlightAware Approximate
Sat 09:27:29 AM 56.9477 -17.4111 93° East  Level FlightAware Approximate
Sat 09:35:29 AM 56.8581 -15.2160 95° East  Level FlightAware Approximate
Sat 09:43:29 AM 56.7363 -13.0322 97° East  Level FlightAware Approximate
Sat 09:51:29 AM 56.5765 -10.8646 99° East  Level FlightAware Approximate
Sat 09:59:29 AM 56.3798 -8.7172 101° East  Level FlightAware Approximate
Sat 10:07:29 AM 56.1422 -6.5956 102° East  Level FlightAware Approximate
Sat 10:15:29 AM 55.8751 -4.4993 87° East  Level FlightAware Approximate
Sat 10:23:29 AM 55.9180 -2.3594 88° East  Level FlightAware Approximate
Sat 10:31:29 AM 55.9484 -0.2142 90° East  Level FlightAware Approximate
Sat 10:39:29 AM 55.9349 1.9321 92° East  Level FlightAware Approximate
Sat 10:47:29 AM 55.8813 4.0746 93° East  Level FlightAware Approximate
Sat 10:55:29 AM 55.7919 6.2093 98° East  Level FlightAware Approximate
Sat 11:03:29 AM 55.6043 8.3162 100° East  Level FlightAware Approximate
Sat 11:11:29 AM 55.3810 10.4011 102° East  Level FlightAware Approximate
Sat 11:19:29 AM 55.1226 12.4609 103° East  Level FlightAware Approximate
Sat 11:27:29 AM 54.8299 14.4924 105° East  Level FlightAware Approximate
Sat 11:35:29 AM 54.5015 16.4918 107° East  Level FlightAware Approximate
Sat 11:43:29 AM 54.1407 18.4578 108° East  Level FlightAware Approximate
Sat 11:51:29 AM 53.7483 20.3883 110° East  Level FlightAware Approximate
Sat 11:59:29 AM 53.3256 22.2818 111° Southeast  Level FlightAware Approximate
Sat 12:07:29 PM 52.8735 24.1369 113° Southeast  Level FlightAware Approximate
Sat 12:15:29 PM 52.3931 25.9524 114° Southeast  Level FlightAware Approximate
Sat 12:23:29 PM 51.8854 27.7278 116° Southeast  Level FlightAware Approximate
Sat 12:31:29 PM 51.3517 29.4626 117° Southeast  Level FlightAware Approximate
Sat 12:39:29 PM 50.7930 31.1565 118° Southeast  Level FlightAware Approximate
Sat 12:47:29 PM 50.2103 32.8095 120° Southeast  Level FlightAware Approximate
Sat 12:55:29 PM 49.6047 34.4218 121° Southeast  Level FlightAware Approximate
Sat 01:03:29 PM 48.9773 35.9939 122° Southeast  Level FlightAware Approximate
Sat 01:11:29 PM 48.3291 37.5263 123° Southeast  Level FlightAware Approximate
Sat 01:19:29 PM 47.6610 39.0196 124° Southeast  Level FlightAware Approximate
Sat 01:27:29 PM 46.9740 40.4747 125° Southeast  Level FlightAware Approximate
Sat 01:35:29 PM 46.2691 41.8924 126° Southeast  Level FlightAware Approximate
Sat 01:43:29 PM 45.5471 43.2737 127° Southeast  Level FlightAware Approximate
Sat 01:51:29 PM 44.8089 44.6195 128° Southeast  Level FlightAware Approximate
Sat 01:59:29 PM 44.0553 45.9310 129° Southeast  Level FlightAware Approximate
Sat 02:07:29 PM 43.2871 47.2092 130° Southeast  Level FlightAware Approximate
Sat 02:15:29 PM 42.5050 48.4552 131° Southeast  Level FlightAware Approximate
Sat 02:23:29 PM 41.7097 49.6702 132° Southeast  Level FlightAware Approximate
Sat 02:31:29 PM 40.9020 50.8553 133° Southeast  Level FlightAware Approximate
Sat 02:39:29 PM 40.0824 52.0115 133° Southeast  Level FlightAware Approximate
Sat 02:47:29 PM 39.2516 53.1401 134° Southeast  Level FlightAware Approximate
Sat 02:55:29 PM 38.4101 54.2421 135° Southeast  Level FlightAware Approximate
Sat 03:03:29 PM 37.5586 55.3185 135° Southeast  Level FlightAware Approximate
Sat 03:11:29 PM 36.6975 56.3705 136° Southeast  Level FlightAware Approximate
Sat 03:19:29 PM 35.8274 57.3991 137° Southeast  Level FlightAware Approximate
Sat 03:27:29 PM 34.9487 58.4052 137° Southeast  Level FlightAware Approximate
Sat 03:35:29 PM 34.0619 59.3899 135° Southeast  Level FlightAware Approximate
Sat 03:43:29 PM 33.2156 60.4110 139° Southeast  Level FlightAware Approximate
Sat 03:51:29 PM 32.3089 61.3496 139° Southeast  Level FlightAware Approximate
Sat 03:59:29 PM 31.3955 62.2695 140° Southeast  Level FlightAware Approximate
Sat 04:07:29 PM 30.4757 63.1716 140° Southeast  Level FlightAware Approximate
Sat 04:15:29 PM 29.5497 64.0568 141° Southeast  Level FlightAware Approximate
Sat 04:23:29 PM 28.6180 64.9258 141° Southeast  Level FlightAware Approximate
Sat 04:31:29 PM 27.6808 65.7796 141° Southeast  Level FlightAware Approximate
Sat 04:39:29 PM 26.7385 66.6187 142° Southeast  Level FlightAware Approximate
Sat 04:47:29 PM 25.7913 67.4441 142° Southeast  Level FlightAware Approximate
Sat 04:55:29 PM 24.8396 68.2563 143° Southeast  Level FlightAware Approximate
Sat 05:03:29 PM 23.8810 69.0524 143° Southeast  Level FlightAware Approximate
Sat 05:11:29 PM 22.9202 69.8395 143° Southeast  Level FlightAware Approximate
Sat 05:19:29 PM 21.9556 70.6155 144° Southeast  Level FlightAware Approximate
Sat 05:27:29 PM 20.9874 71.3809 144° Southeast  Level FlightAware Approximate
Sat 05:35:29 PM 20.0188 72.1394 144° Southeast  Level FlightAware Approximate
Sat 05:43:29 PM 19.0833 72.8667 12° North  Level FlightAware Approximate
Sat 05:51:29 PM 20.2569 73.1429 193° South  Level Estimated
Sat 05:59:29 PM 19.0833 72.8667 12° North  Level FlightAware Approximate
Sat 06:07:29 PM 20.2569 73.1429 193° South  Level Estimated
Sat 06:15:29 PM 19.0833 72.8667 193° South  Level FlightAware Approximate

Login

Don't have an account? Register now (free) for customized features, flight alerts, and more!